sensor_id;sensor_type;location;lat;lon;timestamp;temperature;humidity
25811;DHT22;13645;52.460;13.910;2023-07-22T00:00:40;13.10;99.90
25811;DHT22;13645;52.460;13.910;2023-07-22T00:03:07;13.10;99.90
25811;DHT22;13645;52.460;13.910;2023-07-22T00:05:34;13.00;99.90
25811;DHT22;13645;52.460;13.910;2023-07-22T00:08:01;13.00;99.90
25811;DHT22;13645;52.460;13.910;2023-07-22T00:10:28;13.00;99.90
25811;DHT22;13645;52.460;13.910;2023-07-22T00:12:54;13.00;99.90
25811;DHT22;13645;52.460;13.910;2023-07-22T00:15:21;13.00;99.90
25811;DHT22;13645;52.460;13.910;2023-07-22T00:17:50;13.00;99.90
25811;DHT22;13645;52.460;13.910;2023-07-22T00:20:18;13.00;99.90
25811;DHT22;13645;52.460;13.910;2023-07-22T00:22:46;12.90;99.90
25811;DHT22;13645;52.460;13.910;2023-07-22T00:25:13;12.90;99.90
25811;DHT22;13645;52.460;13.910;2023-07-22T00:27:41;12.90;99.90
25811;DHT22;13645;52.460;13.910;2023-07-22T00:30:08;12.90;99.90
25811;DHT22;13645;52.460;13.910;2023-07-22T00:32:35;13.00;99.90
25811;DHT22;13645;52.460;13.910;2023-07-22T00:35:05;12.90;99.90
25811;DHT22;13645;52.460;13.910;2023-07-22T00:37:32;12.90;99.90
25811;DHT22;13645;52.460;13.910;2023-07-22T00:40:00;12.90;99.90
25811;DHT22;13645;52.460;13.910;2023-07-22T00:42:28;12.90;99.90
25811;DHT22;13645;52.460;13.910;2023-07-22T00:44:55;12.90;99.90
25811;DHT22;13645;52.460;13.910;2023-07-22T00:47:22;12.90;99.90
25811;DHT22;13645;52.460;13.910;2023-07-22T00:49:49;12.90;99.90
25811;DHT22;13645;52.460;13.910;2023-07-22T00:52:17;12.90;99.90
25811;DHT22;13645;52.460;13.910;2023-07-22T00:54:44;12.90;99.90
25811;DHT22;13645;52.460;13.910;2023-07-22T00:57:11;13.00;99.90
25811;DHT22;13645;52.460;13.910;2023-07-22T00:59:41;13.00;99.90
25811;DHT22;13645;52.460;13.910;2023-07-22T01:02:08;13.10;99.90
25811;DHT22;13645;52.460;13.910;2023-07-22T01:04:37;13.10;99.90
25811;DHT22;13645;52.460;13.910;2023-07-22T01:07:04;13.20;99.90
25811;DHT22;13645;52.460;13.910;2023-07-22T01:09:43;13.20;99.90
25811;DHT22;13645;52.460;13.910;2023-07-22T01:12:10;13.20;99.90
25811;DHT22;13645;52.460;13.910;2023-07-22T01:14:39;13.20;99.90
25811;DHT22;13645;52.460;13.910;2023-07-22T01:17:08;13.20;99.90
25811;DHT22;13645;52.460;13.910;2023-07-22T01:19:36;13.20;99.90
25811;DHT22;13645;52.460;13.910;2023-07-22T01:22:04;13.20;99.90
25811;DHT22;13645;52.460;13.910;2023-07-22T01:24:34;13.20;99.90
25811;DHT22;13645;52.460;13.910;2023-07-22T01:27:01;13.20;99.90
25811;DHT22;13645;52.460;13.910;2023-07-22T01:29:30;13.20;99.90
25811;DHT22;13645;52.460;13.910;2023-07-22T01:31:56;13.20;99.90
25811;DHT22;13645;52.460;13.910;2023-07-22T01:34:23;13.20;99.90
25811;DHT22;13645;52.460;13.910;2023-07-22T01:36:51;13.30;99.90
25811;DHT22;13645;52.460;13.910;2023-07-22T01:39:19;13.30;99.90
25811;DHT22;13645;52.460;13.910;2023-07-22T01:41:46;13.30;99.90
25811;DHT22;13645;52.460;13.910;2023-07-22T01:44:13;13.40;99.90
25811;DHT22;13645;52.460;13.910;2023-07-22T01:46:41;13.40;99.90
25811;DHT22;13645;52.460;13.910;2023-07-22T01:49:10;13.40;99.90
25811;DHT22;13645;52.460;13.910;2023-07-22T01:51:39;13.50;99.90
25811;DHT22;13645;52.460;13.910;2023-07-22T01:54:09;13.50;99.90
25811;DHT22;13645;52.460;13.910;2023-07-22T01:56:37;13.50;99.90
25811;DHT22;13645;52.460;13.910;2023-07-22T01:59:04;13.50;99.90
25811;DHT22;13645;52.460;13.910;2023-07-22T02:01:32;13.60;99.90
25811;DHT22;13645;52.460;13.910;2023-07-22T02:03:59;13.60;99.90
25811;DHT22;13645;52.460;13.910;2023-07-22T02:06:27;13.70;99.90
25811;DHT22;13645;52.460;13.910;2023-07-22T02:08:57;13.70;99.90
25811;DHT22;13645;52.460;13.910;2023-07-22T02:11:24;13.70;99.90
25811;DHT22;13645;52.460;13.910;2023-07-22T02:13:51;13.70;99.90
25811;DHT22;13645;52.460;13.910;2023-07-22T02:16:18;13.70;99.90
25811;DHT22;13645;52.460;13.910;2023-07-22T02:18:45;13.70;99.90
25811;DHT22;13645;52.460;13.910;2023-07-22T02:21:12;13.70;99.90
25811;DHT22;13645;52.460;13.910;2023-07-22T02:23:40;13.70;99.90
25811;DHT22;13645;52.460;13.910;2023-07-22T02:26:06;13.80;99.90
25811;DHT22;13645;52.460;13.910;2023-07-22T02:28:33;13.80;99.90
25811;DHT22;13645;52.460;13.910;2023-07-22T02:31:02;13.80;99.90
25811;DHT22;13645;52.460;13.910;2023-07-22T02:33:34;13.80;99.90
25811;DHT22;13645;52.460;13.910;2023-07-22T02:36:00;13.80;99.90
25811;DHT22;13645;52.460;13.910;2023-07-22T02:38:27;13.80;99.90
25811;DHT22;13645;52.460;13.910;2023-07-22T02:40:54;13.80;99.90
25811;DHT22;13645;52.460;13.910;2023-07-22T02:43:23;13.80;99.90
25811;DHT22;13645;52.460;13.910;2023-07-22T02:45:56;13.90;99.90
25811;DHT22;13645;52.460;13.910;2023-07-22T02:48:23;13.90;99.90
25811;DHT22;13645;52.460;13.910;2023-07-22T02:51:08;13.80;99.90
25811;DHT22;13645;52.460;13.910;2023-07-22T02:53:37;13.80;99.90
25811;DHT22;13645;52.460;13.910;2023-07-22T02:56:13;13.70;99.90
25811;DHT22;13645;52.460;13.910;2023-07-22T02:58:47;13.70;99.90
25811;DHT22;13645;52.460;13.910;2023-07-22T03:01:14;13.80;99.90
25811;DHT22;13645;52.460;13.910;2023-07-22T03:03:46;13.80;99.90
25811;DHT22;13645;52.460;13.910;2023-07-22T03:06:14;13.70;99.90
25811;DHT22;13645;52.460;13.910;2023-07-22T03:08:43;13.70;99.90
25811;DHT22;13645;52.460;13.910;2023-07-22T03:11:10;13.70;99.90
25811;DHT22;13645;52.460;13.910;2023-07-22T03:13:40;13.80;99.90
25811;DHT22;13645;52.460;13.910;2023-07-22T03:16:06;13.80;99.90
25811;DHT22;13645;52.460;13.910;2023-07-22T03:18:34;13.70;99.90
25811;DHT22;13645;52.460;13.910;2023-07-22T03:21:01;13.70;99.90
25811;DHT22;13645;52.460;13.910;2023-07-22T03:23:28;13.70;99.90
25811;DHT22;13645;52.460;13.910;2023-07-22T03:25:55;13.80;99.90
25811;DHT22;13645;52.460;13.910;2023-07-22T03:28:22;13.70;99.90
25811;DHT22;13645;52.460;13.910;2023-07-22T03:30:49;13.80;99.90
25811;DHT22;13645;52.460;13.910;2023-07-22T03:33:16;13.70;99.90
25811;DHT22;13645;52.460;13.910;2023-07-22T03:35:43;13.80;99.90
25811;DHT22;13645;52.460;13.910;2023-07-22T03:38:09;13.70;99.90
25811;DHT22;13645;52.460;13.910;2023-07-22T03:40:36;13.70;99.90
25811;DHT22;13645;52.460;13.910;2023-07-22T03:43:05;13.70;99.90
25811;DHT22;13645;52.460;13.910;2023-07-22T03:45:32;13.70;99.90
25811;DHT22;13645;52.460;13.910;2023-07-22T03:47:59;13.70;99.90
25811;DHT22;13645;52.460;13.910;2023-07-22T03:50:27;13.70;99.90
25811;DHT22;13645;52.460;13.910;2023-07-22T03:52:54;13.70;99.90
25811;DHT22;13645;52.460;13.910;2023-07-22T03:55:21;13.70;99.90
25811;DHT22;13645;52.460;13.910;2023-07-22T03:57:48;13.70;99.90
25811;DHT22;13645;52.460;13.910;2023-07-22T04:00:15;13.80;99.90
25811;DHT22;13645;52.460;13.910;2023-07-22T04:02:42;13.80;99.90
25811;DHT22;13645;52.460;13.910;2023-07-22T04:05:09;13.80;99.90
25811;DHT22;13645;52.460;13.910;2023-07-22T04:07:36;13.80;99.90
25811;DHT22;13645;52.460;13.910;2023-07-22T04:10:03;13.80;99.90
25811;DHT22;13645;52.460;13.910;2023-07-22T04:12:30;13.80;99.90
25811;DHT22;13645;52.460;13.910;2023-07-22T04:14:57;13.80;99.90
25811;DHT22;13645;52.460;13.910;2023-07-22T04:17:23;13.90;99.90
25811;DHT22;13645;52.460;13.910;2023-07-22T04:19:53;13.90;99.90
25811;DHT22;13645;52.460;13.910;2023-07-22T04:22:21;13.90;99.90
25811;DHT22;13645;52.460;13.910;2023-07-22T04:24:48;13.90;99.90
25811;DHT22;13645;52.460;13.910;2023-07-22T04:27:17;13.90;99.90
25811;DHT22;13645;52.460;13.910;2023-07-22T04:29:44;13.90;99.90
25811;DHT22;13645;52.460;13.910;2023-07-22T04:32:11;13.90;99.90
25811;DHT22;13645;52.460;13.910;2023-07-22T04:34:38;13.90;99.90
25811;DHT22;13645;52.460;13.910;2023-07-22T04:37:05;14.00;99.90
25811;DHT22;13645;52.460;13.910;2023-07-22T04:39:32;14.00;99.90
25811;DHT22;13645;52.460;13.910;2023-07-22T04:41:58;14.00;99.90
25811;DHT22;13645;52.460;13.910;2023-07-22T04:44:25;14.00;99.90
25811;DHT22;13645;52.460;13.910;2023-07-22T04:46:52;14.10;99.90
25811;DHT22;13645;52.460;13.910;2023-07-22T04:49:19;14.10;99.90
25811;DHT22;13645;52.460;13.910;2023-07-22T04:51:46;14.10;99.90
25811;DHT22;13645;52.460;13.910;2023-07-22T04:54:14;14.10;99.90
25811;DHT22;13645;52.460;13.910;2023-07-22T04:56:42;14.20;99.90
25811;DHT22;13645;52.460;13.910;2023-07-22T04:59:09;14.30;99.90
25811;DHT22;13645;52.460;13.910;2023-07-22T05:01:36;14.30;99.90
25811;DHT22;13645;52.460;13.910;2023-07-22T05:04:03;14.30;99.90
25811;DHT22;13645;52.460;13.910;2023-07-22T05:06:31;14.30;99.90
25811;DHT22;13645;52.460;13.910;2023-07-22T05:08:58;14.40;99.90
25811;DHT22;13645;52.460;13.910;2023-07-22T05:11:25;14.40;99.90
25811;DHT22;13645;52.460;13.910;2023-07-22T05:13:52;14.50;99.90
25811;DHT22;13645;52.460;13.910;2023-07-22T05:16:19;14.50;99.90
25811;DHT22;13645;52.460;13.910;2023-07-22T05:18:47;14.60;99.90
25811;DHT22;13645;52.460;13.910;2023-07-22T05:21:14;14.60;99.90
25811;DHT22;13645;52.460;13.910;2023-07-22T05:23:41;14.70;99.90
25811;DHT22;13645;52.460;13.910;2023-07-22T05:26:08;14.70;99.90
25811;DHT22;13645;52.460;13.910;2023-07-22T05:28:34;14.80;99.90
25811;DHT22;13645;52.460;13.910;2023-07-22T05:31:01;14.80;99.90
25811;DHT22;13645;52.460;13.910;2023-07-22T05:33:28;14.90;99.90
25811;DHT22;13645;52.460;13.910;2023-07-22T05:35:55;15.00;99.90
25811;DHT22;13645;52.460;13.910;2023-07-22T05:38:22;15.00;99.90
25811;DHT22;13645;52.460;13.910;2023-07-22T05:40:48;15.10;99.90
25811;DHT22;13645;52.460;13.910;2023-07-22T05:43:16;15.30;99.90
25811;DHT22;13645;52.460;13.910;2023-07-22T05:45:43;15.40;99.90
25811;DHT22;13645;52.460;13.910;2023-07-22T05:48:10;15.40;99.90
25811;DHT22;13645;52.460;13.910;2023-07-22T05:50:36;15.50;99.90
25811;DHT22;13645;52.460;13.910;2023-07-22T05:53:03;15.50;99.90
25811;DHT22;13645;52.460;13.910;2023-07-22T05:55:30;15.50;99.90
25811;DHT22;13645;52.460;13.910;2023-07-22T05:57:57;15.50;99.90
25811;DHT22;13645;52.460;13.910;2023-07-22T06:00:24;15.60;99.90
25811;DHT22;13645;52.460;13.910;2023-07-22T06:02:50;15.70;99.90
25811;DHT22;13645;52.460;13.910;2023-07-22T06:05:17;15.70;99.90
25811;DHT22;13645;52.460;13.910;2023-07-22T06:07:44;15.70;99.90
25811;DHT22;13645;52.460;13.910;2023-07-22T06:10:11;15.80;99.90
25811;DHT22;13645;52.460;13.910;2023-07-22T06:12:38;15.80;99.90
25811;DHT22;13645;52.460;13.910;2023-07-22T06:15:05;16.00;99.90
25811;DHT22;13645;52.460;13.910;2023-07-22T06:17:33;16.10;99.90
25811;DHT22;13645;52.460;13.910;2023-07-22T06:19:59;16.10;99.90
25811;DHT22;13645;52.460;13.910;2023-07-22T06:22:26;16.10;99.90
25811;DHT22;13645;52.460;13.910;2023-07-22T06:24:53;16.20;99.90
25811;DHT22;13645;52.460;13.910;2023-07-22T06:27:20;16.30;99.90
25811;DHT22;13645;52.460;13.910;2023-07-22T06:29:47;16.40;99.90
25811;DHT22;13645;52.460;13.910;2023-07-22T06:32:13;16.60;99.90
25811;DHT22;13645;52.460;13.910;2023-07-22T06:34:40;16.60;99.90
25811;DHT22;13645;52.460;13.910;2023-07-22T06:37:07;16.70;99.90
25811;DHT22;13645;52.460;13.910;2023-07-22T06:39:33;16.70;99.90
25811;DHT22;13645;52.460;13.910;2023-07-22T06:42:00;16.70;99.90
25811;DHT22;13645;52.460;13.910;2023-07-22T06:44:27;16.60;99.90
25811;DHT22;13645;52.460;13.910;2023-07-22T06:46:55;16.50;99.90
25811;DHT22;13645;52.460;13.910;2023-07-22T06:49:22;16.50;99.90
25811;DHT22;13645;52.460;13.910;2023-07-22T06:51:49;16.50;99.90
25811;DHT22;13645;52.460;13.910;2023-07-22T06:54:15;16.40;99.90
25811;DHT22;13645;52.460;13.910;2023-07-22T06:56:42;16.50;99.90
25811;DHT22;13645;52.460;13.910;2023-07-22T06:59:09;16.60;99.90
25811;DHT22;13645;52.460;13.910;2023-07-22T07:01:35;16.70;99.90
25811;DHT22;13645;52.460;13.910;2023-07-22T07:04:02;17.00;99.90
25811;DHT22;13645;52.460;13.910;2023-07-22T07:06:29;17.10;99.90
25811;DHT22;13645;52.460;13.910;2023-07-22T07:08:59;17.00;99.90
25811;DHT22;13645;52.460;13.910;2023-07-22T07:11:28;16.90;99.90
25811;DHT22;13645;52.460;13.910;2023-07-22T07:13:55;17.20;99.90
25811;DHT22;13645;52.460;13.910;2023-07-22T07:16:26;17.30;99.90
25811;DHT22;13645;52.460;13.910;2023-07-22T07:18:55;17.70;99.90
25811;DHT22;13645;52.460;13.910;2023-07-22T07:21:22;17.90;99.90
25811;DHT22;13645;52.460;13.910;2023-07-22T07:23:49;18.20;99.90
25811;DHT22;13645;52.460;13.910;2023-07-22T07:26:17;18.70;99.90
25811;DHT22;13645;52.460;13.910;2023-07-22T07:28:44;18.90;99.90
25811;DHT22;13645;52.460;13.910;2023-07-22T07:31:10;18.80;64.80
25811;DHT22;13645;52.460;13.910;2023-07-22T07:33:37;18.80;99.90
25811;DHT22;13645;52.460;13.910;2023-07-22T07:36:04;18.70;99.90
25811;DHT22;13645;52.460;13.910;2023-07-22T07:38:31;18.60;99.90
25811;DHT22;13645;52.460;13.910;2023-07-22T07:41:05;18.10;99.90
25811;DHT22;13645;52.460;13.910;2023-07-22T07:43:38;18.00;99.90
25811;DHT22;13645;52.460;13.910;2023-07-22T07:48:39;18.30;99.90
25811;DHT22;13645;52.460;13.910;2023-07-22T07:51:06;18.60;99.90
25811;DHT22;13645;52.460;13.910;2023-07-22T07:53:33;18.70;20.20
25811;DHT22;13645;52.460;13.910;2023-07-22T07:56:02;18.40;58.60
25811;DHT22;13645;52.460;13.910;2023-07-22T07:58:29;18.40;1.70
25811;DHT22;13645;52.460;13.910;2023-07-22T08:00:56;18.30;10.30
25811;DHT22;13645;52.460;13.910;2023-07-22T08:03:23;18.60;13.60
25811;DHT22;13645;52.460;13.910;2023-07-22T08:05:50;19.00;1.00
25811;DHT22;13645;52.460;13.910;2023-07-22T08:08:17;19.50;1.00
25811;DHT22;13645;52.460;13.910;2023-07-22T08:10:44;19.90;1.00
25811;DHT22;13645;52.460;13.910;2023-07-22T08:13:14;19.80;1.00
25811;DHT22;13645;52.460;13.910;2023-07-22T08:15:45;19.80;1.00
25811;DHT22;13645;52.460;13.910;2023-07-22T08:18:12;19.90;1.00
25811;DHT22;13645;52.460;13.910;2023-07-22T08:20:39;19.90;1.00
25811;DHT22;13645;52.460;13.910;2023-07-22T08:23:06;20.20;1.00
25811;DHT22;13645;52.460;13.910;2023-07-22T08:25:33;20.40;1.00
25811;DHT22;13645;52.460;13.910;2023-07-22T08:27:59;20.60;1.00
25811;DHT22;13645;52.460;13.910;2023-07-22T08:30:26;20.00;1.00
25811;DHT22;13645;52.460;13.910;2023-07-22T08:32:53;20.00;1.00
25811;DHT22;13645;52.460;13.910;2023-07-22T08:35:20;19.90;1.00
25811;DHT22;13645;52.460;13.910;2023-07-22T08:37:48;20.10;1.00
25811;DHT22;13645;52.460;13.910;2023-07-22T08:40:15;20.50;99.90
25811;DHT22;13645;52.460;13.910;2023-07-22T08:42:45;20.80;99.90
25811;DHT22;13645;52.460;13.910;2023-07-22T08:45:14;21.10;99.90
25811;DHT22;13645;52.460;13.910;2023-07-22T08:47:51;21.20;99.90
25811;DHT22;13645;52.460;13.910;2023-07-22T08:50:21;20.90;99.90
25811;DHT22;13645;52.460;13.910;2023-07-22T08:52:51;21.00;99.90
25811;DHT22;13645;52.460;13.910;2023-07-22T08:55:18;21.10;99.90
25811;DHT22;13645;52.460;13.910;2023-07-22T08:57:46;21.30;99.90
25811;DHT22;13645;52.460;13.910;2023-07-22T09:00:14;21.40;36.50
25811;DHT22;13645;52.460;13.910;2023-07-22T09:02:42;21.40;1.00
25811;DHT22;13645;52.460;13.910;2023-07-22T09:05:09;21.20;1.00
25811;DHT22;13645;52.460;13.910;2023-07-22T09:07:37;20.70;99.90
25811;DHT22;13645;52.460;13.910;2023-07-22T09:10:06;20.50;1.00
25811;DHT22;13645;52.460;13.910;2023-07-22T09:12:35;20.30;99.90
25811;DHT22;13645;52.460;13.910;2023-07-22T09:15:09;20.50;1.00
25811;DHT22;13645;52.460;13.910;2023-07-22T09:17:41;20.50;99.90
25811;DHT22;13645;52.460;13.910;2023-07-22T09:20:08;20.60;99.90
25811;DHT22;13645;52.460;13.910;2023-07-22T09:22:50;20.90;99.90
25811;DHT22;13645;52.460;13.910;2023-07-22T09:25:37;21.10;1.00
25811;DHT22;13645;52.460;13.910;2023-07-22T09:28:03;21.00;1.00
25811;DHT22;13645;52.460;13.910;2023-07-22T09:30:34;20.60;99.90
25811;DHT22;13645;52.460;13.910;2023-07-22T09:33:03;20.40;1.00
25811;DHT22;13645;52.460;13.910;2023-07-22T09:35:47;20.20;1.00
25811;DHT22;13645;52.460;13.910;2023-07-22T09:38:15;20.60;99.90
25811;DHT22;13645;52.460;13.910;2023-07-22T09:40:48;21.00;1.00
25811;DHT22;13645;52.460;13.910;2023-07-22T09:43:15;21.10;1.00
25811;DHT22;13645;52.460;13.910;2023-07-22T09:45:41;21.10;99.90
25811;DHT22;13645;52.460;13.910;2023-07-22T09:48:09;20.90;99.90
25811;DHT22;13645;52.460;13.910;2023-07-22T09:50:37;20.70;99.90
25811;DHT22;13645;52.460;13.910;2023-07-22T09:53:04;20.50;1.00
25811;DHT22;13645;52.460;13.910;2023-07-22T09:55:32;20.40;1.00
25811;DHT22;13645;52.460;13.910;2023-07-22T09:58:04;20.40;1.00
25811;DHT22;13645;52.460;13.910;2023-07-22T10:00:35;20.70;1.00
25811;DHT22;13645;52.460;13.910;2023-07-22T10:03:04;21.00;99.90
25811;DHT22;13645;52.460;13.910;2023-07-22T10:05:38;21.50;99.90
25811;DHT22;13645;52.460;13.910;2023-07-22T10:08:06;22.10;99.90
25811;DHT22;13645;52.460;13.910;2023-07-22T10:10:38;22.20;99.90
25811;DHT22;13645;52.460;13.910;2023-07-22T10:13:05;22.00;81.60
25811;DHT22;13645;52.460;13.910;2023-07-22T10:15:33;21.80;99.90
25811;DHT22;13645;52.460;13.910;2023-07-22T10:18:02;21.90;1.00
25811;DHT22;13645;52.460;13.910;2023-07-22T10:20:30;21.90;99.90
25811;DHT22;13645;52.460;13.910;2023-07-22T10:23:01;21.80;1.00
25811;DHT22;13645;52.460;13.910;2023-07-22T10:25:28;21.50;1.00
25811;DHT22;13645;52.460;13.910;2023-07-22T10:27:55;21.70;99.90
25811;DHT22;13645;52.460;13.910;2023-07-22T10:30:22;21.90;1.00
25811;DHT22;13645;52.460;13.910;2023-07-22T10:32:52;22.50;99.90
25811;DHT22;13645;52.460;13.910;2023-07-22T10:38:14;22.60;99.90
25811;DHT22;13645;52.460;13.910;2023-07-22T10:40:55;22.10;1.00
25811;DHT22;13645;52.460;13.910;2023-07-22T10:43:25;22.10;1.00
25811;DHT22;13645;52.460;13.910;2023-07-22T10:45:56;22.00;99.90
25811;DHT22;13645;52.460;13.910;2023-07-22T10:48:26;21.60;99.90
25811;DHT22;13645;52.460;13.910;2023-07-22T10:50:58;21.40;99.90
25811;DHT22;13645;52.460;13.910;2023-07-22T10:56:10;22.20;99.90
25811;DHT22;13645;52.460;13.910;2023-07-22T11:04:22;22.40;1.00
25811;DHT22;13645;52.460;13.910;2023-07-22T11:07:33;23.00;99.90
25811;DHT22;13645;52.460;13.910;2023-07-22T11:10:12;23.60;99.90
25811;DHT22;13645;52.460;13.910;2023-07-22T11:12:39;24.10;99.90
25811;DHT22;13645;52.460;13.910;2023-07-22T11:15:07;24.30;99.90
25811;DHT22;13645;52.460;13.910;2023-07-22T11:17:34;23.70;12.40
25811;DHT22;13645;52.460;13.910;2023-07-22T11:20:02;23.00;99.90
25811;DHT22;13645;52.460;13.910;2023-07-22T11:22:28;22.50;1.00
25811;DHT22;13645;52.460;13.910;2023-07-22T11:24:56;22.70;1.00
25811;DHT22;13645;52.460;13.910;2023-07-22T11:27:26;23.30;1.00
25811;DHT22;13645;52.460;13.910;2023-07-22T11:29:53;24.00;99.90
25811;DHT22;13645;52.460;13.910;2023-07-22T11:32:20;24.40;1.00
25811;DHT22;13645;52.460;13.910;2023-07-22T11:34:54;24.20;1.00
25811;DHT22;13645;52.460;13.910;2023-07-22T11:37:20;24.00;99.90
25811;DHT22;13645;52.460;13.910;2023-07-22T11:39:47;23.60;1.00
25811;DHT22;13645;52.460;13.910;2023-07-22T11:42:15;22.90;1.00
25811;DHT22;13645;52.460;13.910;2023-07-22T11:44:42;22.50;1.00
25811;DHT22;13645;52.460;13.910;2023-07-22T11:47:09;23.00;1.00
25811;DHT22;13645;52.460;13.910;2023-07-22T11:49:41;22.90;1.00
25811;DHT22;13645;52.460;13.910;2023-07-22T11:52:09;22.70;1.00
25811;DHT22;13645;52.460;13.910;2023-07-22T11:54:39;22.90;99.90
25811;DHT22;13645;52.460;13.910;2023-07-22T11:57:21;22.80;79.80
25811;DHT22;13645;52.460;13.910;2023-07-22T11:59:53;23.60;99.90
25811;DHT22;13645;52.460;13.910;2023-07-22T12:02:25;23.80;99.90
25811;DHT22;13645;52.460;13.910;2023-07-22T12:04:57;23.60;99.90
25811;DHT22;13645;52.460;13.910;2023-07-22T12:07:35;22.80;99.90
25811;DHT22;13645;52.460;13.910;2023-07-22T12:10:06;22.60;1.00
25811;DHT22;13645;52.460;13.910;2023-07-22T12:12:38;22.30;1.00
25811;DHT22;13645;52.460;13.910;2023-07-22T12:15:16;21.90;1.00
25811;DHT22;13645;52.460;13.910;2023-07-22T12:18:01;22.10;20.00
25811;DHT22;13645;52.460;13.910;2023-07-22T12:20:33;22.30;64.20
25811;DHT22;13645;52.460;13.910;2023-07-22T12:23:00;22.20;1.00
25811;DHT22;13645;52.460;13.910;2023-07-22T12:25:27;22.00;40.70
25811;DHT22;13645;52.460;13.910;2023-07-22T12:27:54;22.10;99.90
25811;DHT22;13645;52.460;13.910;2023-07-22T12:30:21;22.70;1.00
25811;DHT22;13645;52.460;13.910;2023-07-22T12:32:48;22.90;1.00
25811;DHT22;13645;52.460;13.910;2023-07-22T12:35:15;23.60;15.70
25811;DHT22;13645;52.460;13.910;2023-07-22T12:37:42;24.30;1.00
25811;DHT22;13645;52.460;13.910;2023-07-22T12:40:10;24.60;1.00
25811;DHT22;13645;52.460;13.910;2023-07-22T12:42:38;24.60;99.90
25811;DHT22;13645;52.460;13.910;2023-07-22T12:45:06;25.00;99.90
25811;DHT22;13645;52.460;13.910;2023-07-22T12:47:33;25.10;99.90
25811;DHT22;13645;52.460;13.910;2023-07-22T12:49:59;24.80;99.90
25811;DHT22;13645;52.460;13.910;2023-07-22T12:52:26;24.20;84.90
25811;DHT22;13645;52.460;13.910;2023-07-22T12:54:55;23.60;57.60
25811;DHT22;13645;52.460;13.910;2023-07-22T12:57:22;23.30;99.90
25811;DHT22;13645;52.460;13.910;2023-07-22T12:59:49;23.60;95.70
25811;DHT22;13645;52.460;13.910;2023-07-22T13:02:16;23.70;99.90
25811;DHT22;13645;52.460;13.910;2023-07-22T13:04:43;24.40;99.90
25811;DHT22;13645;52.460;13.910;2023-07-22T13:07:11;24.70;73.00
25811;DHT22;13645;52.460;13.910;2023-07-22T13:09:37;25.10;1.00
25811;DHT22;13645;52.460;13.910;2023-07-22T13:12:05;25.50;1.00
25811;DHT22;13645;52.460;13.910;2023-07-22T13:14:32;25.10;1.00
25811;DHT22;13645;52.460;13.910;2023-07-22T13:16:58;24.60;1.00
25811;DHT22;13645;52.460;13.910;2023-07-22T13:19:25;24.20;1.00
25811;DHT22;13645;52.460;13.910;2023-07-22T13:21:52;23.80;1.00
25811;DHT22;13645;52.460;13.910;2023-07-22T13:24:19;23.60;1.00
25811;DHT22;13645;52.460;13.910;2023-07-22T13:26:45;23.40;1.00
25811;DHT22;13645;52.460;13.910;2023-07-22T13:29:12;23.60;1.00
25811;DHT22;13645;52.460;13.910;2023-07-22T13:31:39;23.80;1.00
25811;DHT22;13645;52.460;13.910;2023-07-22T13:34:06;23.70;1.00
25811;DHT22;13645;52.460;13.910;2023-07-22T13:36:32;23.90;1.00
25811;DHT22;13645;52.460;13.910;2023-07-22T13:38:59;23.90;1.00
25811;DHT22;13645;52.460;13.910;2023-07-22T13:41:26;24.00;1.00
25811;DHT22;13645;52.460;13.910;2023-07-22T13:43:53;23.80;1.00
25811;DHT22;13645;52.460;13.910;2023-07-22T13:46:20;23.70;1.00
25811;DHT22;13645;52.460;13.910;2023-07-22T13:48:48;23.90;1.00
25811;DHT22;13645;52.460;13.910;2023-07-22T13:51:14;24.20;1.00
25811;DHT22;13645;52.460;13.910;2023-07-22T13:53:41;24.20;1.00
25811;DHT22;13645;52.460;13.910;2023-07-22T13:56:08;23.70;1.00
25811;DHT22;13645;52.460;13.910;2023-07-22T13:58:35;23.40;1.00
25811;DHT22;13645;52.460;13.910;2023-07-22T14:01:01;23.10;1.00
25811;DHT22;13645;52.460;13.910;2023-07-22T14:03:29;22.90;1.00
25811;DHT22;13645;52.460;13.910;2023-07-22T14:05:56;22.60;1.00
25811;DHT22;13645;52.460;13.910;2023-07-22T14:08:23;22.70;37.90
25811;DHT22;13645;52.460;13.910;2023-07-22T14:10:50;22.80;34.90
25811;DHT22;13645;52.460;13.910;2023-07-22T14:13:17;23.20;1.00
25811;DHT22;13645;52.460;13.910;2023-07-22T14:15:43;23.10;1.00
25811;DHT22;13645;52.460;13.910;2023-07-22T14:18:10;23.10;16.40
25811;DHT22;13645;52.460;13.910;2023-07-22T14:20:37;23.30;19.60
25811;DHT22;13645;52.460;13.910;2023-07-22T14:23:03;23.30;89.60
25811;DHT22;13645;52.460;13.910;2023-07-22T14:25:31;23.20;14.50
25811;DHT22;13645;52.460;13.910;2023-07-22T14:27:58;23.20;1.00
25811;DHT22;13645;52.460;13.910;2023-07-22T14:30:24;23.20;1.00
25811;DHT22;13645;52.460;13.910;2023-07-22T14:32:51;23.20;43.30
25811;DHT22;13645;52.460;13.910;2023-07-22T14:35:18;23.40;34.70
25811;DHT22;13645;52.460;13.910;2023-07-22T14:37:45;23.40;1.00
25811;DHT22;13645;52.460;13.910;2023-07-22T14:40:13;23.40;1.00
25811;DHT22;13645;52.460;13.910;2023-07-22T14:42:40;23.40;1.00
25811;DHT22;13645;52.460;13.910;2023-07-22T14:45:07;23.50;1.00
25811;DHT22;13645;52.460;13.910;2023-07-22T14:47:34;23.80;1.00
25811;DHT22;13645;52.460;13.910;2023-07-22T14:50:02;23.90;1.00
25811;DHT22;13645;52.460;13.910;2023-07-22T14:52:29;23.80;1.00
25811;DHT22;13645;52.460;13.910;2023-07-22T14:54:55;23.70;1.00
25811;DHT22;13645;52.460;13.910;2023-07-22T14:57:22;23.70;1.00
25811;DHT22;13645;52.460;13.910;2023-07-22T14:59:53;23.50;1.00
25811;DHT22;13645;52.460;13.910;2023-07-22T15:02:19;23.40;1.00
25811;DHT22;13645;52.460;13.910;2023-07-22T15:04:46;23.70;1.00
25811;DHT22;13645;52.460;13.910;2023-07-22T15:07:13;23.60;1.00
25811;DHT22;13645;52.460;13.910;2023-07-22T15:09:40;23.40;1.00
25811;DHT22;13645;52.460;13.910;2023-07-22T15:12:07;23.40;1.00
25811;DHT22;13645;52.460;13.910;2023-07-22T15:14:36;23.20;1.00
25811;DHT22;13645;52.460;13.910;2023-07-22T15:17:03;23.20;1.00
25811;DHT22;13645;52.460;13.910;2023-07-22T15:19:30;23.10;39.30
25811;DHT22;13645;52.460;13.910;2023-07-22T15:21:56;23.20;99.90
25811;DHT22;13645;52.460;13.910;2023-07-22T15:24:23;23.50;14.40
25811;DHT22;13645;52.460;13.910;2023-07-22T15:26:50;23.60;16.70
25811;DHT22;13645;52.460;13.910;2023-07-22T15:29:17;23.50;93.10
25811;DHT22;13645;52.460;13.910;2023-07-22T15:31:43;23.40;99.90
25811;DHT22;13645;52.460;13.910;2023-07-22T15:34:10;23.20;1.00
25811;DHT22;13645;52.460;13.910;2023-07-22T15:36:37;23.00;1.00
25811;DHT22;13645;52.460;13.910;2023-07-22T15:39:03;22.80;1.00